Time;durP1;ratioP1;P1;durP2;ratioP2;P2;SDS_P1;SDS_P2;PMS_P1;PMS_P2;Temp;Humidity;BMP_temperature;BMP_pressure;BME280_temperature;BME280_humidity;BME280_pressure;Samples;Min_cycle;Max_cycle;Signal;HPM_P1;HPM_P2
2021/12/11 00:01:56;;;;;;;32.53;15.32;;;;;;;;;;4988362;28;20184;-61
2021/12/11 00:04:31;;;;;;;30.83;16.33;;;;;;;;;;4990029;28;20060;-61
2021/12/11 00:06:58;;;;;;;32.00;16.30;;;;;;;;;;4992677;28;20101;-61
2021/12/11 00:09:29;;;;;;;36.53;15.95;;;;;;;;;;4991318;28;20120;-61
2021/12/11 00:11:59;;;;;;;31.85;16.90;;;;;;;;;;5002400;28;20400;-61
2021/12/11 00:14:29;;;;;;;33.17;17.65;;;;;;;;;;4989395;28;21521;-62
2021/12/11 00:16:55;;;;;;;33.58;17.02;;;;;;;;;;4987581;28;20034;-62
2021/12/11 00:19:29;;;;;;;35.65;16.77;;;;;;;;;;4991595;28;20032;-62
2021/12/11 00:22:08;;;;;;;37.88;17.33;;;;;;;;;;4989566;28;20042;-62
2021/12/11 00:24:35;;;;;;;30.90;17.40;;;;;;;;;;4989833;28;20030;-62
2021/12/11 00:27:06;;;;;;;33.25;16.58;;;;;;;;;;4974568;28;20098;-62
2021/12/11 00:29:33;;;;;;;33.75;17.60;;;;;;;;;;4991636;28;20026;-61
2021/12/11 00:32:05;;;;;;;33.28;17.02;;;;;;;;;;4992368;28;20046;-62
2021/12/11 00:34:31;;;;;;;35.05;17.13;;;;;;;;;;4989926;28;20034;-62
2021/12/11 00:36:59;;;;;;;33.53;16.48;;;;;;;;;;4991454;28;20092;-62
2021/12/11 00:39:25;;;;;;;30.63;15.95;;;;;;;;;;4991374;28;20054;-62
2021/12/11 00:41:56;;;;;;;30.88;16.45;;;;;;;;;;4974015;28;20042;-62
2021/12/11 00:44:51;;;;;;;35.42;16.58;;;;;;;;;;4990582;28;20065;-61
2021/12/11 00:47:26;;;;;;;36.13;17.02;;;;;;;;;;4991299;28;20078;-61
2021/12/11 00:50:10;;;;;;;34.55;16.60;;;;;;;;;;4991168;28;20041;-61
2021/12/11 00:52:49;;;;;;;39.95;18.35;;;;;;;;;;4975707;28;20468;-61
2021/12/11 00:55:25;;;;;;;33.35;16.83;;;;;;;;;;4990833;28;20044;-61
2021/12/11 00:58:09;;;;;;;36.53;16.98;;;;;;;;;;4992348;28;20026;-61
2021/12/11 01:00:50;;;;;;;35.38;17.77;;;;;;;;;;4989531;28;20034;-61
2021/12/11 01:03:20;;;;;;;33.05;17.30;;;;;;;;;;4990740;28;20046;-62
2021/12/11 01:05:50;;;;;;;33.20;16.27;;;;;;;;;;4989719;28;20042;-61
2021/12/11 01:08:32;;;;;;;32.83;16.30;;;;;;;;;;4990276;28;20030;-61
2021/12/11 01:11:00;;;;;;;;;;;;;;;;;;4990612;28;20104;-61
2021/12/11 01:13:32;;;;;;;37.08;16.65;;;;;;;;;;4972594;28;19922;-61
2021/12/11 01:16:05;;;;;;;34.00;16.38;;;;;;;;;;4988920;28;20064;-61
2021/12/11 01:18:36;;;;;;;39.63;18.70;;;;;;;;;;4990463;28;20165;-62
2021/12/11 01:21:12;;;;;;;35.88;19.85;;;;;;;;;;4991405;28;20034;-60
2021/12/11 01:26:13;;;;;;;43.15;21.35;;;;;;;;;;4990647;28;20034;-62
2021/12/11 01:28:39;;;;;;;41.72;20.95;;;;;;;;;;4990388;28;20570;-60
2021/12/11 01:31:08;;;;;;;42.60;21.02;;;;;;;;;;4991543;28;20054;-61
2021/12/11 01:33:33;;;;;;;44.40;21.17;;;;;;;;;;4989950;28;20022;-61
2021/12/11 01:35:59;;;;;;;45.60;20.00;;;;;;;;;;4990989;28;20385;-61
2021/12/11 01:38:28;;;;;;;40.33;20.27;;;;;;;;;;4990707;28;20137;-61
2021/12/11 01:41:19;;;;;;;46.20;20.98;;;;;;;;;;4974136;28;20030;-61
2021/12/11 01:43:49;;;;;;;44.40;20.17;;;;;;;;;;4991431;28;20109;-61
2021/12/11 01:46:15;;;;;;;40.53;20.48;;;;;;;;;;4990361;28;20026;-61
2021/12/11 01:48:45;;;;;;;48.20;20.48;;;;;;;;;;4990426;28;20041;-61
2021/12/11 01:51:20;;;;;;;42.20;21.15;;;;;;;;;;4972048;28;20027;-62
2021/12/11 01:53:56;;;;;;;41.17;19.95;;;;;;;;;;4991723;28;20380;-61
2021/12/11 01:56:25;;;;;;;40.65;20.33;;;;;;;;;;4992731;28;20026;-61
2021/12/11 01:59:07;;;;;;;41.00;20.08;;;;;;;;;;4994644;28;20022;-61
2021/12/11 02:01:36;;;;;;;38.97;20.08;;;;;;;;;;4994178;28;20113;-61
2021/12/11 02:04:05;;;;;;;41.65;19.23;;;;;;;;;;4993028;28;20456;-61
2021/12/11 02:06:36;;;;;;;42.85;21.20;;;;;;;;;;4992726;28;20138;-61
2021/12/11 02:09:31;;;;;;;42.33;20.92;;;;;;;;;;4993751;28;20069;-61
2021/12/11 02:12:09;;;;;;;41.35;20.00;;;;;;;;;;4981464;28;20061;-61
2021/12/11 02:14:40;;;;;;;47.15;19.75;;;;;;;;;;4995730;28;20031;-60
2021/12/11 02:17:16;;;;;;;40.80;20.02;;;;;;;;;;4992740;28;20027;-61
2021/12/11 02:19:44;;;;;;;36.50;17.75;;;;;;;;;;4994054;28;20084;-61
2021/12/11 02:22:13;;;;;;;35.88;17.77;;;;;;;;;;4993079;28;20030;-62
2021/12/11 02:24:49;;;;;;;39.70;18.45;;;;;;;;;;4994028;28;20030;-61
2021/12/11 02:27:30;;;;;;;39.00;19.67;;;;;;;;;;4993960;28;20161;-61
2021/12/11 02:30:04;;;;;;;37.95;18.42;;;;;;;;;;4987521;28;20116;-61
2021/12/11 02:32:42;;;;;;;39.05;19.63;;;;;;;;;;4975229;28;20098;-61
2021/12/11 02:35:13;;;;;;;39.35;18.48;;;;;;;;;;4988254;28;20121;-61
2021/12/11 02:37:44;;;;;;;36.90;18.90;;;;;;;;;;4993263;28;20062;-61
2021/12/11 02:40:23;;;;;;;36.13;18.50;;;;;;;;;;4993555;28;20480;-62
2021/12/11 02:42:54;;;;;;;40.83;19.20;;;;;;;;;;4993311;28;20034;-61
2021/12/11 02:45:31;;;;;;;38.10;18.20;;;;;;;;;;4976313;28;20034;-61
2021/12/11 02:48:07;;;;;;;35.28;17.80;;;;;;;;;;4993286;28;20034;-61
2021/12/11 02:50:41;;;;;;;35.72;18.75;;;;;;;;;;4992328;28;20038;-62
2021/12/11 02:53:15;;;;;;;37.70;18.02;;;;;;;;;;4993128;28;20524;-62
2021/12/11 02:55:51;;;;;;;33.30;17.55;;;;;;;;;;4979094;28;20034;-61
2021/12/11 02:58:22;;;;;;;35.75;17.90;;;;;;;;;;4992378;28;20108;-62
2021/12/11 03:00:57;;;;;;;34.10;16.92;;;;;;;;;;4994516;28;20034;-61
2021/12/11 03:03:28;;;;;;;29.00;16.25;;;;;;;;;;4991811;28;20035;-62
2021/12/11 03:06:03;;;;;;;37.42;17.35;;;;;;;;;;4993009;28;20030;-62
2021/12/11 03:08:29;;;;;;;35.70;16.70;;;;;;;;;;4992304;28;20384;-62
2021/12/11 03:10:59;;;;;;;32.28;16.38;;;;;;;;;;4993889;28;20046;-61
2021/12/11 03:13:29;;;;;;;34.75;16.77;;;;;;;;;;4992969;28;20034;-61
2021/12/11 03:15:54;;;;;;;36.60;17.17;;;;;;;;;;4976934;28;20043;-61
2021/12/11 03:18:21;;;;;;;30.25;16.83;;;;;;;;;;4990992;28;20042;-61
2021/12/11 03:20:48;;;;;;;35.00;17.02;;;;;;;;;;4976006;28;20062;-61
2021/12/11 03:23:14;;;;;;;35.92;17.15;;;;;;;;;;4990927;28;20492;-62
2021/12/11 03:25:40;;;;;;;33.25;17.98;;;;;;;;;;4993776;28;20035;-60
2021/12/11 03:28:08;;;;;;;32.28;16.25;;;;;;;;;;4993778;28;20062;-61
2021/12/11 03:30:38;;;;;;;34.65;16.90;;;;;;;;;;4991911;28;20034;-62
2021/12/11 03:33:08;;;;;;;35.43;16.87;;;;;;;;;;4992779;28;20026;-62
2021/12/11 03:35:33;;;;;;;33.35;16.63;;;;;;;;;;4991922;28;20607;-61
2021/12/11 03:38:00;;;;;;;35.92;17.00;;;;;;;;;;4992493;28;20041;-61
2021/12/11 03:40:26;;;;;;;35.00;17.85;;;;;;;;;;4991114;28;20109;-61
2021/12/11 03:42:54;;;;;;;36.25;16.92;;;;;;;;;;4993462;28;20030;-61
2021/12/11 03:45:24;;;;;;;34.35;16.98;;;;;;;;;;4992657;28;20038;-62
2021/12/11 03:47:57;;;;;;;32.35;16.00;;;;;;;;;;4992506;28;20041;-61
2021/12/11 03:50:26;;;;;;;33.58;17.05;;;;;;;;;;4989004;28;20071;-61
2021/12/11 03:52:53;;;;;;;33.97;16.48;;;;;;;;;;4993192;28;20037;-61
2021/12/11 03:55:30;;;;;;;32.88;16.63;;;;;;;;;;4989662;28;20092;-62
2021/12/11 03:58:01;;;;;;;35.70;17.30;;;;;;;;;;4986587;28;20160;-61
2021/12/11 04:00:35;;;;;;;36.53;18.13;;;;;;;;;;4991398;28;20027;-61
2021/12/11 04:03:05;;;;;;;32.35;16.77;;;;;;;;;;4993079;28;20057;-62
2021/12/11 04:05:36;;;;;;;31.40;15.95;;;;;;;;;;4980202;28;20030;-61
2021/12/11 04:08:03;;;;;;;32.30;16.35;;;;;;;;;;4992899;28;20030;-61
2021/12/11 04:10:29;;;;;;;31.13;15.77;;;;;;;;;;4990549;28;20042;-60
2021/12/11 04:12:59;;;;;;;31.67;17.13;;;;;;;;;;4991260;28;20034;-61
2021/12/11 04:15:25;;;;;;;36.72;17.45;;;;;;;;;;4990641;28;20113;-61
2021/12/11 04:17:51;;;;;;;39.60;17.38;;;;;;;;;;4981979;28;20184;-61
2021/12/11 04:20:20;;;;;;;32.58;16.45;;;;;;;;;;4983576;28;20045;-62
2021/12/11 04:22:46;;;;;;;33.38;16.23;;;;;;;;;;4993755;28;20041;-61
2021/12/11 04:25:14;;;;;;;31.02;16.40;;;;;;;;;;4974761;28;20030;-61
2021/12/11 04:27:40;;;;;;;34.90;16.65;;;;;;;;;;4991805;28;20026;-61
2021/12/11 04:30:09;;;;;;;33.67;16.83;;;;;;;;;;4992454;28;20037;-61
2021/12/11 04:32:36;;;;;;;29.98;16.33;;;;;;;;;;4993999;28;20045;-61
2021/12/11 04:35:05;;;;;;;33.70;16.27;;;;;;;;;;4994239;28;20127;-61
2021/12/11 04:37:33;;;;;;;32.97;15.68;;;;;;;;;;4994129;28;20124;-62
2021/12/11 04:40:14;;;;;;;32.95;17.35;;;;;;;;;;4991702;28;20041;-62
2021/12/11 04:42:51;;;;;;;35.72;16.92;;;;;;;;;;4973216;28;20026;-62
2021/12/11 04:45:34;;;;;;;34.53;16.23;;;;;;;;;;4991370;28;20041;-63
2021/12/11 04:48:13;;;;;;;31.85;16.55;;;;;;;;;;4975688;28;20121;-62
2021/12/11 04:50:55;;;;;;;36.70;16.65;;;;;;;;;;4972988;28;20034;-62
2021/12/11 04:59:27;;;;;;;33.95;17.60;;;;;;;;;;4984030;28;20031;-62
2021/12/11 05:10:14;;;;;;;38.33;17.38;;;;;;;;;;4992067;28;20133;-62
2021/12/11 05:12:42;;;;;;;40.58;17.83;;;;;;;;;;4973943;28;20039;-61
2021/12/11 05:15:12;;;;;;;36.95;18.17;;;;;;;;;;4992395;28;20061;-62
2021/12/11 05:17:38;;;;;;;45.90;20.00;;;;;;;;;;4991440;28;20038;-61
2021/12/11 05:20:06;;;;;;;43.78;18.55;;;;;;;;;;4992354;28;20034;-62
2021/12/11 05:22:31;;;;;;;48.85;20.23;;;;;;;;;;4991289;28;20038;-61
2021/12/11 05:24:57;;;;;;;56.67;20.80;;;;;;;;;;4992390;28;20026;-61
2021/12/11 05:27:23;;;;;;;59.50;20.23;;;;;;;;;;4990515;28;20126;-62
2021/12/11 05:29:50;;;;;;;49.42;19.88;;;;;;;;;;4991027;28;20080;-62
2021/12/11 05:32:18;;;;;;;65.30;21.00;;;;;;;;;;4992227;28;20120;-61
2021/12/11 05:34:44;;;;;;;58.33;20.70;;;;;;;;;;4991076;28;20116;-62
2021/12/11 05:37:11;;;;;;;70.80;20.13;;;;;;;;;;4992618;28;20122;-61
2021/12/11 05:39:36;;;;;;;77.78;20.80;;;;;;;;;;4991476;28;20046;-61
2021/12/11 05:42:03;;;;;;;76.95;22.05;;;;;;;;;;4992178;28;20380;-61
2021/12/11 05:44:28;;;;;;;85.93;21.48;;;;;;;;;;4991110;28;20092;-62
2021/12/11 05:46:54;;;;;;;94.00;22.40;;;;;;;;;;4992327;28;20379;-61
2021/12/11 05:49:20;;;;;;;83.80;22.85;;;;;;;;;;4976991;28;20464;-61
2021/12/11 05:51:48;;;;;;;85.45;23.33;;;;;;;;;;4985254;28;20041;-61
2021/12/11 05:54:21;;;;;;;107.95;21.75;;;;;;;;;;4990396;28;20119;-61
2021/12/11 05:56:46;;;;;;;71.68;21.15;;;;;;;;;;4969593;28;20063;-61
2021/12/11 05:59:15;;;;;;;67.88;19.17;;;;;;;;;;4992272;28;20038;-61
2021/12/11 06:01:45;;;;;;;99.25;20.60;;;;;;;;;;4989606;28;20038;-61
2021/12/11 06:04:17;;;;;;;90.63;18.10;;;;;;;;;;4991974;28;20052;-61
2021/12/11 06:06:44;;;;;;;96.80;20.98;;;;;;;;;;4985698;28;20034;-61
2021/12/11 06:09:12;;;;;;;138.32;24.10;;;;;;;;;;4991841;28;20049;-60
2021/12/11 06:11:40;;;;;;;104.70;22.13;;;;;;;;;;4991355;28;20078;-61
2021/12/11 06:14:06;;;;;;;115.63;23.95;;;;;;;;;;4991755;28;20034;-61
2021/12/11 06:16:32;;;;;;;111.97;22.55;;;;;;;;;;4990276;28;20396;-61
2021/12/11 06:19:02;;;;;;;116.22;23.10;;;;;;;;;;4991895;28;20030;-61
2021/12/11 06:21:28;;;;;;;144.60;27.30;;;;;;;;;;4990578;28;20033;-65
2021/12/11 06:23:54;;;;;;;136.57;28.30;;;;;;;;;;4990821;28;20042;-62
2021/12/11 06:26:19;;;;;;;133.48;23.98;;;;;;;;;;4990167;28;20060;-62
2021/12/11 06:28:45;;;;;;;145.57;29.30;;;;;;;;;;4990340;28;20125;-62
2021/12/11 06:31:18;;;;;;;108.35;24.17;;;;;;;;;;4991063;28;20030;-61
2021/12/11 06:33:44;;;;;;;165.73;27.00;;;;;;;;;;4972408;28;20605;-62
2021/12/11 06:36:14;;;;;;;167.02;28.40;;;;;;;;;;4991397;28;20034;-62
2021/12/11 06:38:43;;;;;;;191.45;28.77;;;;;;;;;;4991578;28;20072;-62
2021/12/11 06:41:12;;;;;;;129.40;27.02;;;;;;;;;;4976348;28;20096;-63
2021/12/11 06:43:39;;;;;;;148.52;28.88;;;;;;;;;;4994607;28;20027;-62
2021/12/11 06:46:06;;;;;;;156.02;30.80;;;;;;;;;;4993655;28;20490;-62
2021/12/11 06:48:32;;;;;;;126.50;29.48;;;;;;;;;;4994137;28;20479;-62
2021/12/11 06:51:00;;;;;;;140.32;31.95;;;;;;;;;;4999465;28;20125;-62
2021/12/11 06:53:33;;;;;;;133.23;29.30;;;;;;;;;;4994801;28;20041;-63
2021/12/11 06:55:58;;;;;;;171.65;30.67;;;;;;;;;;4994590;28;20045;-61
2021/12/11 06:58:25;;;;;;;134.10;30.25;;;;;;;;;;4995371;28;20391;-62
2021/12/11 07:00:51;;;;;;;135.70;29.20;;;;;;;;;;4994462;28;20031;-62
2021/12/11 07:03:17;;;;;;;164.27;35.83;;;;;;;;;;4994510;28;20368;-61
2021/12/11 07:05:42;;;;;;;145.80;34.70;;;;;;;;;;4994497;28;20058;-61
2021/12/11 07:08:11;;;;;;;133.38;27.48;;;;;;;;;;4994600;28;20132;-61
2021/12/11 07:10:38;;;;;;;114.10;26.70;;;;;;;;;;4993967;28;20034;-62
2021/12/11 07:13:03;;;;;;;127.78;26.48;;;;;;;;;;4994650;28;20094;-61
2021/12/11 07:15:29;;;;;;;72.78;19.10;;;;;;;;;;4993643;28;20046;-63
2021/12/11 07:17:55;;;;;;;88.85;23.70;;;;;;;;;;4994184;28;20034;-62
2021/12/11 07:20:20;;;;;;;83.22;19.92;;;;;;;;;;4994663;28;20030;-62
2021/12/11 07:22:46;;;;;;;108.57;23.30;;;;;;;;;;4993048;28;20053;-62
2021/12/11 07:25:39;;;;;;;102.80;23.38;;;;;;;;;;4994021;28;20136;-62
2021/12/11 07:28:07;;;;;;;43.97;15.27;;;;;;;;;;4994556;28;20037;-62
2021/12/11 07:30:34;;;;;;;124.30;27.95;;;;;;;;;;4992533;28;20044;-62
2021/12/11 07:33:00;;;;;;;141.63;27.52;;;;;;;;;;4993663;28;20113;-62
2021/12/11 07:35:26;;;;;;;123.82;27.02;;;;;;;;;;4994166;28;20038;-61
2021/12/11 07:37:52;;;;;;;106.32;25.13;;;;;;;;;;4993735;28;20034;-61
2021/12/11 07:40:21;;;;;;;137.82;28.20;;;;;;;;;;4994261;28;20038;-61
2021/12/11 07:42:47;;;;;;;126.50;28.88;;;;;;;;;;4974637;28;20042;-61
2021/12/11 07:45:14;;;;;;;97.30;20.58;;;;;;;;;;4992877;28;20023;-61
2021/12/11 07:47:40;;;;;;;126.82;27.05;;;;;;;;;;4992205;28;20113;-61
2021/12/11 07:50:06;;;;;;;81.43;20.63;;;;;;;;;;4992832;28;20533;-61
2021/12/11 07:52:31;;;;;;;157.27;32.53;;;;;;;;;;4991957;28;20085;-63
2021/12/11 07:54:57;;;;;;;68.97;17.35;;;;;;;;;;4992659;28;20121;-62
2021/12/11 07:57:22;;;;;;;152.20;28.50;;;;;;;;;;4993635;28;20038;-62
2021/12/11 07:59:48;;;;;;;98.22;24.05;;;;;;;;;;4992960;28;20030;-61
2021/12/11 08:02:13;;;;;;;134.88;29.98;;;;;;;;;;4992690;28;20038;-62
2021/12/11 08:04:39;;;;;;;99.68;22.75;;;;;;;;;;4992082;28;20038;-61
2021/12/11 08:07:04;;;;;;;125.88;28.50;;;;;;;;;;4993662;28;20034;-62
2021/12/11 08:09:30;;;;;;;111.15;26.33;;;;;;;;;;4992105;28;20057;-64
2021/12/11 08:11:56;;;;;;;137.95;30.30;;;;;;;;;;4992059;28;20049;-61
2021/12/11 08:14:23;;;;;;;138.65;29.38;;;;;;;;;;4992970;28;20392;-61
2021/12/11 08:16:53;;;;;;;137.73;27.50;;;;;;;;;;4991838;28;20038;-63
2021/12/11 08:19:26;;;;;;;143.50;31.60;;;;;;;;;;4993918;28;20045;-62
2021/12/11 08:21:54;;;;;;;159.85;32.75;;;;;;;;;;4990824;28;20034;-62
2021/12/11 08:24:21;;;;;;;142.32;31.33;;;;;;;;;;4993229;28;20037;-62
2021/12/11 08:26:49;;;;;;;170.70;32.45;;;;;;;;;;4992439;28;20550;-61
2021/12/11 08:29:16;;;;;;;159.88;32.15;;;;;;;;;;4992981;28;20093;-61
2021/12/11 08:31:45;;;;;;;150.32;32.28;;;;;;;;;;4991151;28;20026;-62
2021/12/11 08:34:11;;;;;;;164.98;32.65;;;;;;;;;;4992945;28;20041;-62
2021/12/11 08:36:37;;;;;;;167.07;32.20;;;;;;;;;;4974738;28;20053;-61
2021/12/11 08:39:06;;;;;;;143.75;31.42;;;;;;;;;;4974526;28;20022;-63
2021/12/11 08:41:32;;;;;;;137.75;31.38;;;;;;;;;;4991019;28;20088;-65
2021/12/11 08:44:03;;;;;;;124.95;30.60;;;;;;;;;;4991886;28;20034;-62
2021/12/11 08:46:31;;;;;;;138.32;30.48;;;;;;;;;;4991470;28;20034;-62
2021/12/11 08:49:00;;;;;;;132.70;30.45;;;;;;;;;;4990013;28;20043;-61
2021/12/11 08:51:35;;;;;;;137.63;29.35;;;;;;;;;;4993243;28;20030;-63
2021/12/11 08:54:01;;;;;;;144.32;31.65;;;;;;;;;;4992685;28;20030;-63
2021/12/11 08:56:28;;;;;;;136.98;29.88;;;;;;;;;;4974485;28;20040;-62
2021/12/11 08:58:54;;;;;;;130.93;30.27;;;;;;;;;;4992262;28;20155;-67
2021/12/11 09:01:38;;;;;;;116.70;28.23;;;;;;;;;;4991789;28;20038;-66
2021/12/11 09:04:11;;;;;;;121.82;28.70;;;;;;;;;;4976300;28;20038;-66
2021/12/11 09:06:41;;;;;;;129.55;28.13;;;;;;;;;;4973648;28;20093;-67
2021/12/11 09:09:16;;;;;;;133.15;29.05;;;;;;;;;;4973370;28;20031;-66
2021/12/11 09:12:02;;;;;;;111.13;27.67;;;;;;;;;;4973415;28;20046;-67
2021/12/11 09:14:34;;;;;;;119.82;29.67;;;;;;;;;;4987109;28;20570;-66
2021/12/11 09:17:00;;;;;;;116.65;27.98;;;;;;;;;;4993050;28;20097;-67
2021/12/11 09:19:37;;;;;;;121.03;28.10;;;;;;;;;;4976062;28;20039;-66
2021/12/11 09:22:08;;;;;;;112.82;27.88;;;;;;;;;;4993131;28;20026;-66
2021/12/11 09:24:49;;;;;;;114.40;27.05;;;;;;;;;;4992442;28;20026;-70
2021/12/11 09:27:34;;;;;;;95.10;26.70;;;;;;;;;;4993114;28;20034;-66
2021/12/11 09:30:22;;;;;;;108.60;26.27;;;;;;;;;;4992017;28;20030;-66
2021/12/11 09:32:55;;;;;;;106.40;27.27;;;;;;;;;;4991077;28;20026;-66
2021/12/11 09:35:31;;;;;;;114.05;29.25;;;;;;;;;;4992479;28;20069;-67
2021/12/11 09:38:10;;;;;;;115.15;27.67;;;;;;;;;;4991401;28;20034;-66
2021/12/11 09:40:41;;;;;;;106.97;25.83;;;;;;;;;;4992061;28;20433;-70
2021/12/11 09:43:06;;;;;;;114.95;28.33;;;;;;;;;;4992744;28;20030;-66
2021/12/11 09:45:43;;;;;;;102.20;27.38;;;;;;;;;;4992262;28;20031;-66
2021/12/11 09:48:14;;;;;;;107.32;28.45;;;;;;;;;;4992345;28;20062;-66
2021/12/11 09:50:47;;;;;;;;;;;;;;;;;;4992273;28;20026;-68
2021/12/11 09:53:15;;;;;;;89.15;25.17;;;;;;;;;;4991675;28;19917;-67
2021/12/11 09:55:41;;;;;;;93.97;25.90;;;;;;;;;;4989587;28;20034;-67
2021/12/11 09:58:12;;;;;;;93.30;27.40;;;;;;;;;;4992115;28;20477;-67
2021/12/11 10:00:43;;;;;;;82.63;26.13;;;;;;;;;;4991841;28;20069;-73
2021/12/11 10:03:11;;;;;;;82.00;26.17;;;;;;;;;;4992364;28;20030;-66
2021/12/11 10:05:46;;;;;;;90.93;26.70;;;;;;;;;;4992004;28;20030;-73
2021/12/11 10:08:27;;;;;;;92.70;26.05;;;;;;;;;;4991904;28;20079;-67
2021/12/11 10:11:11;;;;;;;92.57;26.98;;;;;;;;;;4973653;28;20054;-67
2021/12/11 10:13:46;;;;;;;83.75;24.52;;;;;;;;;;4991679;28;20488;-73
2021/12/11 10:16:14;;;;;;;94.07;26.42;;;;;;;;;;4993852;28;20042;-67
2021/12/11 10:18:40;;;;;;;89.88;27.15;;;;;;;;;;4995512;28;20030;-68
2021/12/11 10:21:11;;;;;;;99.05;26.70;;;;;;;;;;4996104;28;20076;-67
2021/12/11 10:23:39;;;;;;;90.70;27.42;;;;;;;;;;4995656;28;20037;-73
2021/12/11 10:26:10;;;;;;;95.88;27.63;;;;;;;;;;4995700;28;20109;-68
2021/12/11 10:28:41;;;;;;;92.30;27.20;;;;;;;;;;4996074;28;20088;-67
2021/12/11 10:31:22;;;;;;;79.65;26.40;;;;;;;;;;4995423;28;20066;-67
2021/12/11 10:33:48;;;;;;;90.43;26.58;;;;;;;;;;4995020;28;20046;-66
2021/12/11 10:36:17;;;;;;;89.30;25.00;;;;;;;;;;4978219;28;20111;-66
2021/12/11 10:38:44;;;;;;;87.00;25.15;;;;;;;;;;4994629;28;20034;-69
2021/12/11 10:41:11;;;;;;;76.15;26.42;;;;;;;;;;4995519;28;20124;-68
2021/12/11 10:43:52;;;;;;;76.18;24.67;;;;;;;;;;4995499;28;20169;-66
2021/12/11 10:46:18;;;;;;;80.03;24.58;;;;;;;;;;4995859;28;20023;-68
2021/12/11 10:48:44;;;;;;;76.93;25.13;;;;;;;;;;4994737;28;20026;-68
2021/12/11 10:51:18;;;;;;;76.90;25.08;;;;;;;;;;4995858;28;20029;-68
2021/12/11 10:53:46;;;;;;;81.38;25.25;;;;;;;;;;4992222;28;20038;-68
2021/12/11 10:56:15;;;;;;;80.22;25.20;;;;;;;;;;4977761;28;20034;-67
2021/12/11 10:58:45;;;;;;;78.55;24.90;;;;;;;;;;4994780;28;20042;-74
2021/12/11 11:01:27;;;;;;;82.40;25.17;;;;;;;;;;4995291;28;20026;-67
2021/12/11 11:04:00;;;;;;;80.13;24.73;;;;;;;;;;4993151;28;20508;-68
2021/12/11 11:06:26;;;;;;;80.95;24.27;;;;;;;;;;4993891;28;20053;-67
2021/12/11 11:08:52;;;;;;;71.20;23.88;;;;;;;;;;4992302;28;20038;-67
2021/12/11 11:11:21;;;;;;;74.97;24.27;;;;;;;;;;4994857;28;20057;-67
2021/12/11 11:13:47;;;;;;;73.07;24.35;;;;;;;;;;4994062;28;20431;-68
2021/12/11 11:16:14;;;;;;;80.30;23.88;;;;;;;;;;4993363;28;20037;-67
2021/12/11 11:18:40;;;;;;;68.30;22.48;;;;;;;;;;4994830;28;20030;-73
2021/12/11 11:21:12;;;;;;;67.20;22.98;;;;;;;;;;4993824;28;20041;-69
2021/12/11 11:23:40;;;;;;;69.82;23.42;;;;;;;;;;4994342;28;20062;-68
2021/12/11 11:26:10;;;;;;;66.13;24.67;;;;;;;;;;4993424;28;20030;-68
2021/12/11 11:28:37;;;;;;;70.80;24.08;;;;;;;;;;4993731;28;20107;-68
2021/12/11 11:31:08;;;;;;;68.75;22.70;;;;;;;;;;4992658;28;20026;-68
2021/12/11 11:33:34;;;;;;;66.68;24.52;;;;;;;;;;4977137;28;20045;-68
2021/12/11 11:36:05;;;;;;;60.72;22.27;;;;;;;;;;4976398;28;20977;-68
2021/12/11 11:38:37;;;;;;;63.47;22.92;;;;;;;;;;4994862;28;20026;-68
2021/12/11 11:41:07;;;;;;;;;;;;;;;;;;4993606;28;20068;-66
2021/12/11 11:43:34;;;;;;;61.70;21.80;;;;;;;;;;4976570;28;20332;-68
2021/12/11 11:46:00;;;;;;;66.68;23.40;;;;;;;;;;4992124;28;20034;-68
2021/12/11 11:48:30;;;;;;;58.65;20.52;;;;;;;;;;4976996;28;20030;-68
2021/12/11 11:51:02;;;;;;;61.17;22.50;;;;;;;;;;4976648;28;20031;-68
2021/12/11 11:53:27;;;;;;;61.90;23.35;;;;;;;;;;4976990;28;20380;-68
2021/12/11 11:56:01;;;;;;;61.78;22.90;;;;;;;;;;4993162;28;20034;-68
2021/12/11 11:58:29;;;;;;;67.07;23.52;;;;;;;;;;4990887;28;20485;-67
2021/12/11 12:00:59;;;;;;;63.42;22.58;;;;;;;;;;4993177;28;20121;-68
2021/12/11 12:03:28;;;;;;;64.05;22.77;;;;;;;;;;4994342;28;20026;-67
2021/12/11 12:05:58;;;;;;;73.30;23.50;;;;;;;;;;4993204;28;20034;-68
2021/12/11 12:08:24;;;;;;;70.07;22.90;;;;;;;;;;4994058;28;20034;-66
2021/12/11 12:10:51;;;;;;;66.50;23.02;;;;;;;;;;4993098;28;20058;-68
2021/12/11 12:13:19;;;;;;;58.50;21.33;;;;;;;;;;4993317;28;20121;-67
2021/12/11 12:15:49;;;;;;;63.13;22.77;;;;;;;;;;4993073;28;20046;-75
2021/12/11 12:18:16;;;;;;;70.03;22.27;;;;;;;;;;4994017;28;20117;-67
2021/12/11 12:20:43;;;;;;;61.40;22.08;;;;;;;;;;4976214;28;20049;-67
2021/12/11 12:23:10;;;;;;;65.13;21.75;;;;;;;;;;4992810;28;20039;-68
2021/12/11 12:25:38;;;;;;;63.22;22.25;;;;;;;;;;4992329;28;20026;-68
2021/12/11 12:28:04;;;;;;;56.30;22.02;;;;;;;;;;4992663;28;20030;-68
2021/12/11 12:30:41;;;;;;;60.40;22.38;;;;;;;;;;4993508;28;20034;-68
2021/12/11 12:33:08;;;;;;;59.80;22.50;;;;;;;;;;4992425;28;20030;-68
2021/12/11 12:35:35;;;;;;;57.88;21.60;;;;;;;;;;4992990;28;20096;-68
2021/12/11 12:38:05;;;;;;;55.80;22.08;;;;;;;;;;4992208;28;20034;-68
2021/12/11 12:40:35;;;;;;;55.50;22.33;;;;;;;;;;4993446;28;20464;-68
2021/12/11 12:43:12;;;;;;;61.85;21.92;;;;;;;;;;4993090;28;20485;-68
2021/12/11 12:45:43;;;;;;;56.72;22.10;;;;;;;;;;4993143;28;20428;-68
2021/12/11 12:48:20;;;;;;;62.20;22.73;;;;;;;;;;4974797;28;20539;-67
2021/12/11 12:50:49;;;;;;;58.45;21.88;;;;;;;;;;4992432;28;20034;-74
2021/12/11 12:53:16;;;;;;;62.17;22.35;;;;;;;;;;4992110;28;20380;-68
2021/12/11 12:55:50;;;;;;;60.08;23.30;;;;;;;;;;4992902;28;20045;-68
2021/12/11 12:58:21;;;;;;;63.40;22.27;;;;;;;;;;4992392;28;20030;-67
2021/12/11 13:00:51;;;;;;;64.95;23.58;;;;;;;;;;4992522;28;20122;-74
2021/12/11 13:03:21;;;;;;;64.20;22.38;;;;;;;;;;4973862;28;20070;-66
2021/12/11 13:05:52;;;;;;;63.53;23.00;;;;;;;;;;4973286;28;20084;-74
2021/12/11 13:08:28;;;;;;;68.15;23.23;;;;;;;;;;4974824;28;20412;-67
2021/12/11 13:11:01;;;;;;;66.97;23.42;;;;;;;;;;4990575;28;20089;-68
2021/12/11 13:13:28;;;;;;;75.80;24.88;;;;;;;;;;4992472;28;20026;-71
2021/12/11 13:16:01;;;;;;;66.38;24.35;;;;;;;;;;4989759;28;20037;-68
2021/12/11 13:18:31;;;;;;;68.97;23.85;;;;;;;;;;4992674;28;20484;-69
2021/12/11 13:21:05;;;;;;;66.78;24.08;;;;;;;;;;4990708;28;20041;-67
2021/12/11 13:23:33;;;;;;;60.88;23.40;;;;;;;;;;4991987;28;20086;-68
2021/12/11 13:26:00;;;;;;;61.30;23.02;;;;;;;;;;4990993;28;20056;-68
2021/12/11 13:28:32;;;;;;;63.90;23.10;;;;;;;;;;4990351;28;20141;-68
2021/12/11 13:31:02;;;;;;;62.95;23.98;;;;;;;;;;4990151;28;20045;-68
2021/12/11 13:33:28;;;;;;;56.53;22.20;;;;;;;;;;4990945;28;20031;-68
2021/12/11 13:35:56;;;;;;;65.28;24.58;;;;;;;;;;4989409;28;20050;-67
2021/12/11 13:38:26;;;;;;;60.22;22.63;;;;;;;;;;4992456;28;20037;-67
2021/12/11 13:40:56;;;;;;;64.95;22.77;;;;;;;;;;4990831;28;20026;-74
2021/12/11 13:43:22;;;;;;;78.03;26.98;;;;;;;;;;4974719;28;20049;-67
2021/12/11 13:45:55;;;;;;;75.20;28.27;;;;;;;;;;4992029;28;20034;-68
2021/12/11 13:48:22;;;;;;;80.05;30.30;;;;;;;;;;4991034;28;20030;-67
2021/12/11 13:50:57;;;;;;;73.10;26.33;;;;;;;;;;4989442;28;20484;-67
2021/12/11 13:53:25;;;;;;;71.18;26.40;;;;;;;;;;4994000;28;20027;-67
2021/12/11 13:55:53;;;;;;;71.03;27.52;;;;;;;;;;4992473;28;20034;-73
2021/12/11 13:58:19;;;;;;;79.60;29.40;;;;;;;;;;4992764;28;20132;-67
2021/12/11 14:00:52;;;;;;;59.38;25.55;;;;;;;;;;4992190;28;20081;-66
2021/12/11 14:03:21;;;;;;;61.15;23.98;;;;;;;;;;4991102;28;20040;-72
2021/12/11 14:05:49;;;;;;;54.95;23.48;;;;;;;;;;4990153;28;20038;-68
2021/12/11 14:08:16;;;;;;;57.55;23.17;;;;;;;;;;4990473;28;20451;-66
2021/12/11 14:10:43;;;;;;;54.90;22.88;;;;;;;;;;4991947;28;20022;-69
2021/12/11 14:13:11;;;;;;;56.97;23.40;;;;;;;;;;4973262;28;20032;-66
2021/12/11 14:15:40;;;;;;;57.40;22.77;;;;;;;;;;4991914;28;20084;-65
2021/12/11 14:18:07;;;;;;;55.65;22.63;;;;;;;;;;4991051;28;20089;-66
2021/12/11 14:20:34;;;;;;;63.47;25.13;;;;;;;;;;4991228;28;20042;-65
2021/12/11 14:23:03;;;;;;;61.55;26.45;;;;;;;;;;4990450;28;20027;-66
2021/12/11 14:25:32;;;;;;;63.08;25.05;;;;;;;;;;4990048;28;20088;-65
2021/12/11 14:28:09;;;;;;;61.25;25.05;;;;;;;;;;4991024;28;20030;-67
2021/12/11 14:30:38;;;;;;;59.92;23.75;;;;;;;;;;4991598;28;20543;-65
2021/12/11 14:33:04;;;;;;;59.92;24.13;;;;;;;;;;4991182;28;20038;-66
2021/12/11 14:35:33;;;;;;;58.88;23.40;;;;;;;;;;4989489;28;20045;-66
2021/12/11 14:37:59;;;;;;;61.13;24.48;;;;;;;;;;4989723;28;20487;-66
2021/12/11 14:40:28;;;;;;;66.82;23.33;;;;;;;;;;4979879;28;20054;-66
2021/12/11 14:42:54;;;;;;;86.28;29.10;;;;;;;;;;4990894;28;20526;-71
2021/12/11 14:45:24;;;;;;;57.40;21.95;;;;;;;;;;4990871;28;20038;-66
2021/12/11 14:47:51;;;;;;;64.85;20.77;;;;;;;;;;4991651;28;20466;-66
2021/12/11 14:50:19;;;;;;;134.02;46.30;;;;;;;;;;4987200;28;20038;-67